sensor_id;sensor_type;location;lat;lon;timestamp;temperature;humidity
66190;DHT22;52992;52.084;5.412;2023-03-12T00:02:09;6.60;56.10
66190;DHT22;52992;52.084;5.412;2023-03-12T00:04:36;6.60;56.20
66190;DHT22;52992;52.084;5.412;2023-03-12T00:07:04;6.60;56.20
66190;DHT22;52992;52.084;5.412;2023-03-12T00:09:37;6.70;56.30
66190;DHT22;52992;52.084;5.412;2023-03-12T00:12:04;6.80;56.40
66190;DHT22;52992;52.084;5.412;2023-03-12T00:14:32;6.70;56.40
66190;DHT22;52992;52.084;5.412;2023-03-12T00:16:59;6.70;56.30
66190;DHT22;52992;52.084;5.412;2023-03-12T00:19:26;6.80;56.40
66190;DHT22;52992;52.084;5.412;2023-03-12T00:21:53;6.80;56.40
66190;DHT22;52992;52.084;5.412;2023-03-12T00:24:20;6.60;56.20
66190;DHT22;52992;52.084;5.412;2023-03-12T00:26:47;6.80;56.40
66190;DHT22;52992;52.084;5.412;2023-03-12T00:29:13;6.80;56.20
66190;DHT22;52992;52.084;5.412;2023-03-12T00:31:40;6.90;56.10
66190;DHT22;52992;52.084;5.412;2023-03-12T00:34:08;6.80;56.00
66190;DHT22;52992;52.084;5.412;2023-03-12T00:36:35;6.80;56.10
66190;DHT22;52992;52.084;5.412;2023-03-12T00:39:02;6.90;56.20
66190;DHT22;52992;52.084;5.412;2023-03-12T00:41:29;6.90;56.20
66190;DHT22;52992;52.084;5.412;2023-03-12T00:43:56;6.90;56.20
66190;DHT22;52992;52.084;5.412;2023-03-12T00:46:23;7.00;56.20
66190;DHT22;52992;52.084;5.412;2023-03-12T00:48:50;7.00;56.20
66190;DHT22;52992;52.084;5.412;2023-03-12T00:51:18;7.10;56.20
66190;DHT22;52992;52.084;5.412;2023-03-12T00:53:45;7.00;56.10
66190;DHT22;52992;52.084;5.412;2023-03-12T00:56:12;7.00;56.10
66190;DHT22;52992;52.084;5.412;2023-03-12T00:58:38;7.00;55.80
66190;DHT22;52992;52.084;5.412;2023-03-12T01:01:08;7.00;56.10
66190;DHT22;52992;52.084;5.412;2023-03-12T01:03:35;7.00;56.10
66190;DHT22;52992;52.084;5.412;2023-03-12T01:06:03;7.00;56.10
66190;DHT22;52992;52.084;5.412;2023-03-12T01:08:30;7.00;55.80
66190;DHT22;52992;52.084;5.412;2023-03-12T01:10:57;6.90;55.70
66190;DHT22;52992;52.084;5.412;2023-03-12T01:13:24;7.00;55.20
66190;DHT22;52992;52.084;5.412;2023-03-12T01:15:51;6.90;55.50
66190;DHT22;52992;52.084;5.412;2023-03-12T01:18:18;7.00;55.50
66190;DHT22;52992;52.084;5.412;2023-03-12T01:20:45;7.00;54.90
66190;DHT22;52992;52.084;5.412;2023-03-12T01:23:12;7.00;55.00
66190;DHT22;52992;52.084;5.412;2023-03-12T01:25:40;7.10;54.80
66190;DHT22;52992;52.084;5.412;2023-03-12T01:28:07;7.00;54.60
66190;DHT22;52992;52.084;5.412;2023-03-12T01:30:34;7.10;54.80
66190;DHT22;52992;52.084;5.412;2023-03-12T01:33:01;7.10;54.70
66190;DHT22;52992;52.084;5.412;2023-03-12T01:35:28;7.20;54.60
66190;DHT22;52992;52.084;5.412;2023-03-12T01:37:55;7.20;54.50
66190;DHT22;52992;52.084;5.412;2023-03-12T01:40:22;7.30;54.50
66190;DHT22;52992;52.084;5.412;2023-03-12T01:42:56;7.30;54.20
66190;DHT22;52992;52.084;5.412;2023-03-12T01:45:50;7.40;54.10
66190;DHT22;52992;52.084;5.412;2023-03-12T01:48:22;7.40;54.10
66190;DHT22;52992;52.084;5.412;2023-03-12T01:50:50;7.50;54.20
66190;DHT22;52992;52.084;5.412;2023-03-12T01:53:20;7.50;54.00
66190;DHT22;52992;52.084;5.412;2023-03-12T01:55:49;7.50;54.00
66190;DHT22;52992;52.084;5.412;2023-03-12T01:58:16;7.50;54.00
66190;DHT22;52992;52.084;5.412;2023-03-12T02:00:44;7.60;54.10
66190;DHT22;52992;52.084;5.412;2023-03-12T02:03:12;7.60;54.20
66190;DHT22;52992;52.084;5.412;2023-03-12T02:06:02;7.60;54.20
66190;DHT22;52992;52.084;5.412;2023-03-12T02:08:36;7.60;54.30
66190;DHT22;52992;52.084;5.412;2023-03-12T02:11:04;7.60;54.30
66190;DHT22;52992;52.084;5.412;2023-03-12T02:13:31;7.60;54.40
66190;DHT22;52992;52.084;5.412;2023-03-12T02:15:57;7.60;54.50
66190;DHT22;52992;52.084;5.412;2023-03-12T02:18:25;7.70;54.70
66190;DHT22;52992;52.084;5.412;2023-03-12T02:21:15;7.60;54.50
66190;DHT22;52992;52.084;5.412;2023-03-12T02:26:34;7.70;55.40
66190;DHT22;52992;52.084;5.412;2023-03-12T02:29:03;7.70;54.50
66190;DHT22;52992;52.084;5.412;2023-03-12T02:31:36;7.70;54.60
66190;DHT22;52992;52.084;5.412;2023-03-12T02:34:05;7.70;54.30
66190;DHT22;52992;52.084;5.412;2023-03-12T02:36:32;7.70;54.40
66190;DHT22;52992;52.084;5.412;2023-03-12T02:38:59;7.70;54.40
66190;DHT22;52992;52.084;5.412;2023-03-12T02:41:33;7.70;54.40
66190;DHT22;52992;52.084;5.412;2023-03-12T02:47:05;7.60;53.40
66190;DHT22;52992;52.084;5.412;2023-03-12T02:49:33;7.50;53.80
66190;DHT22;52992;52.084;5.412;2023-03-12T02:52:02;7.50;54.20
66190;DHT22;52992;52.084;5.412;2023-03-12T02:54:29;7.50;54.60
66190;DHT22;52992;52.084;5.412;2023-03-12T02:56:57;7.50;54.10
66190;DHT22;52992;52.084;5.412;2023-03-12T02:59:25;7.60;53.60
66190;DHT22;52992;52.084;5.412;2023-03-12T03:01:57;7.50;52.90
66190;DHT22;52992;52.084;5.412;2023-03-12T03:04:26;7.40;53.50
66190;DHT22;52992;52.084;5.412;2023-03-12T03:06:53;7.50;53.80
66190;DHT22;52992;52.084;5.412;2023-03-12T03:09:20;7.50;53.40
66190;DHT22;52992;52.084;5.412;2023-03-12T03:11:49;7.50;53.10
66190;DHT22;52992;52.084;5.412;2023-03-12T03:14:16;7.50;53.20
66190;DHT22;52992;52.084;5.412;2023-03-12T03:16:46;7.40;54.00
66190;DHT22;52992;52.084;5.412;2023-03-12T03:19:13;7.40;53.40
66190;DHT22;52992;52.084;5.412;2023-03-12T03:21:40;7.40;53.50
66190;DHT22;52992;52.084;5.412;2023-03-12T03:24:07;7.40;53.00
66190;DHT22;52992;52.084;5.412;2023-03-12T03:26:34;7.40;52.30
66190;DHT22;52992;52.084;5.412;2023-03-12T03:29:01;7.30;52.50
66190;DHT22;52992;52.084;5.412;2023-03-12T03:31:28;7.30;52.20
66190;DHT22;52992;52.084;5.412;2023-03-12T03:33:56;7.30;52.60
66190;DHT22;52992;52.084;5.412;2023-03-12T03:36:22;7.30;52.40
66190;DHT22;52992;52.084;5.412;2023-03-12T03:38:59;7.20;52.50
66190;DHT22;52992;52.084;5.412;2023-03-12T03:41:28;7.20;52.10
66190;DHT22;52992;52.084;5.412;2023-03-12T03:43:57;7.20;52.40
66190;DHT22;52992;52.084;5.412;2023-03-12T03:46:25;7.20;52.60
66190;DHT22;52992;52.084;5.412;2023-03-12T03:48:57;7.20;52.20
66190;DHT22;52992;52.084;5.412;2023-03-12T03:51:25;7.20;52.30
66190;DHT22;52992;52.084;5.412;2023-03-12T03:53:57;7.30;52.10
66190;DHT22;52992;52.084;5.412;2023-03-12T03:56:26;7.20;52.00
66190;DHT22;52992;52.084;5.412;2023-03-12T03:58:53;7.20;52.40
66190;DHT22;52992;52.084;5.412;2023-03-12T04:01:21;7.30;52.90
66190;DHT22;52992;52.084;5.412;2023-03-12T04:03:49;7.30;52.50
66190;DHT22;52992;52.084;5.412;2023-03-12T04:06:16;7.30;52.60
66190;DHT22;52992;52.084;5.412;2023-03-12T04:08:43;7.40;52.70
66190;DHT22;52992;52.084;5.412;2023-03-12T04:11:15;7.40;52.60
66190;DHT22;52992;52.084;5.412;2023-03-12T04:13:44;7.50;52.40
66190;DHT22;52992;52.084;5.412;2023-03-12T04:16:13;7.50;52.60
66190;DHT22;52992;52.084;5.412;2023-03-12T04:18:42;7.50;52.50
66190;DHT22;52992;52.084;5.412;2023-03-12T04:21:11;7.50;52.80
66190;DHT22;52992;52.084;5.412;2023-03-12T04:23:39;7.50;52.80
66190;DHT22;52992;52.084;5.412;2023-03-12T04:26:08;7.50;52.70
66190;DHT22;52992;52.084;5.412;2023-03-12T04:28:36;7.50;52.80
66190;DHT22;52992;52.084;5.412;2023-03-12T04:31:06;7.40;52.80
66190;DHT22;52992;52.084;5.412;2023-03-12T04:33:39;7.40;53.00
66190;DHT22;52992;52.084;5.412;2023-03-12T04:36:08;7.40;53.10
66190;DHT22;52992;52.084;5.412;2023-03-12T04:38:38;7.40;53.40
66190;DHT22;52992;52.084;5.412;2023-03-12T04:41:09;7.40;53.40
66190;DHT22;52992;52.084;5.412;2023-03-12T04:43:40;7.40;53.40
66190;DHT22;52992;52.084;5.412;2023-03-12T04:46:08;7.30;53.60
66190;DHT22;52992;52.084;5.412;2023-03-12T04:48:36;7.30;53.50
66190;DHT22;52992;52.084;5.412;2023-03-12T04:51:03;7.30;54.00
66190;DHT22;52992;52.084;5.412;2023-03-12T04:53:30;7.20;54.60
66190;DHT22;52992;52.084;5.412;2023-03-12T04:55:57;7.20;54.70
66190;DHT22;52992;52.084;5.412;2023-03-12T04:58:27;7.10;55.20
66190;DHT22;52992;52.084;5.412;2023-03-12T05:00:53;7.10;55.20
66190;DHT22;52992;52.084;5.412;2023-03-12T05:03:21;7.10;55.60
66190;DHT22;52992;52.084;5.412;2023-03-12T05:05:48;7.10;55.70
66190;DHT22;52992;52.084;5.412;2023-03-12T05:08:15;7.00;55.80
66190;DHT22;52992;52.084;5.412;2023-03-12T05:10:46;7.00;56.20
66190;DHT22;52992;52.084;5.412;2023-03-12T05:13:21;6.90;56.50
66190;DHT22;52992;52.084;5.412;2023-03-12T05:15:51;6.90;57.30
66190;DHT22;52992;52.084;5.412;2023-03-12T05:18:19;7.00;56.80
66190;DHT22;52992;52.084;5.412;2023-03-12T05:21:00;6.90;56.90
66190;DHT22;52992;52.084;5.412;2023-03-12T05:23:28;7.00;56.90
66190;DHT22;52992;52.084;5.412;2023-03-12T05:25:56;7.00;56.90
66190;DHT22;52992;52.084;5.412;2023-03-12T05:28:24;7.00;56.40
66190;DHT22;52992;52.084;5.412;2023-03-12T05:30:58;7.00;56.90
66190;DHT22;52992;52.084;5.412;2023-03-12T05:33:26;7.00;56.90
66190;DHT22;52992;52.084;5.412;2023-03-12T05:35:53;6.90;57.20
66190;DHT22;52992;52.084;5.412;2023-03-12T05:38:21;7.00;56.70
66190;DHT22;52992;52.084;5.412;2023-03-12T05:40:55;7.00;57.00
66190;DHT22;52992;52.084;5.412;2023-03-12T05:43:22;7.00;56.90
66190;DHT22;52992;52.084;5.412;2023-03-12T05:45:50;7.00;57.10
66190;DHT22;52992;52.084;5.412;2023-03-12T05:48:18;7.00;57.10
66190;DHT22;52992;52.084;5.412;2023-03-12T05:50:45;7.10;56.90
66190;DHT22;52992;52.084;5.412;2023-03-12T05:53:12;7.10;56.70
66190;DHT22;52992;52.084;5.412;2023-03-12T05:55:40;7.10;56.60
66190;DHT22;52992;52.084;5.412;2023-03-12T05:58:08;7.10;56.30
66190;DHT22;52992;52.084;5.412;2023-03-12T06:00:36;7.10;56.60
66190;DHT22;52992;52.084;5.412;2023-03-12T06:03:05;7.10;56.90
66190;DHT22;52992;52.084;5.412;2023-03-12T06:05:34;7.10;57.20
66190;DHT22;52992;52.084;5.412;2023-03-12T06:08:02;7.10;57.40
66190;DHT22;52992;52.084;5.412;2023-03-12T06:10:29;7.20;57.30
66190;DHT22;52992;52.084;5.412;2023-03-12T06:12:56;7.10;57.40
66190;DHT22;52992;52.084;5.412;2023-03-12T06:15:23;7.10;57.30
66190;DHT22;52992;52.084;5.412;2023-03-12T06:17:50;7.10;57.80
66190;DHT22;52992;52.084;5.412;2023-03-12T06:20:17;7.10;57.90
66190;DHT22;52992;52.084;5.412;2023-03-12T06:22:44;7.20;57.80
66190;DHT22;52992;52.084;5.412;2023-03-12T06:25:11;7.20;57.70
66190;DHT22;52992;52.084;5.412;2023-03-12T06:27:40;7.30;57.90
66190;DHT22;52992;52.084;5.412;2023-03-12T06:30:08;7.30;57.90
66190;DHT22;52992;52.084;5.412;2023-03-12T06:32:35;7.30;57.70
66190;DHT22;52992;52.084;5.412;2023-03-12T06:35:02;7.40;57.80
66190;DHT22;52992;52.084;5.412;2023-03-12T06:37:31;7.30;57.90
66190;DHT22;52992;52.084;5.412;2023-03-12T06:39:57;7.40;58.00
66190;DHT22;52992;52.084;5.412;2023-03-12T06:42:24;7.30;58.30
66190;DHT22;52992;52.084;5.412;2023-03-12T06:44:52;7.30;58.60
66190;DHT22;52992;52.084;5.412;2023-03-12T06:47:19;7.30;59.00
66190;DHT22;52992;52.084;5.412;2023-03-12T06:49:46;7.30;59.30
66190;DHT22;52992;52.084;5.412;2023-03-12T06:52:13;7.30;59.40
66190;DHT22;52992;52.084;5.412;2023-03-12T06:54:40;7.40;59.40
66190;DHT22;52992;52.084;5.412;2023-03-12T06:57:07;7.40;59.60
66190;DHT22;52992;52.084;5.412;2023-03-12T06:59:33;7.40;59.80
66190;DHT22;52992;52.084;5.412;2023-03-12T07:02:00;7.40;60.20
66190;DHT22;52992;52.084;5.412;2023-03-12T07:04:27;7.40;60.60
66190;DHT22;52992;52.084;5.412;2023-03-12T07:06:54;7.40;61.00
66190;DHT22;52992;52.084;5.412;2023-03-12T07:09:21;7.30;61.40
66190;DHT22;52992;52.084;5.412;2023-03-12T07:11:48;7.20;62.00
66190;DHT22;52992;52.084;5.412;2023-03-12T07:14:15;7.20;63.40
66190;DHT22;52992;52.084;5.412;2023-03-12T07:16:42;7.10;64.80
66190;DHT22;52992;52.084;5.412;2023-03-12T07:19:09;7.10;65.10
66190;DHT22;52992;52.084;5.412;2023-03-12T07:21:35;7.10;65.30
66190;DHT22;52992;52.084;5.412;2023-03-12T07:24:02;7.20;65.60
66190;DHT22;52992;52.084;5.412;2023-03-12T07:26:33;7.20;65.70
66190;DHT22;52992;52.084;5.412;2023-03-12T07:29:02;7.20;66.00
66190;DHT22;52992;52.084;5.412;2023-03-12T07:31:29;7.20;66.80
66190;DHT22;52992;52.084;5.412;2023-03-12T07:33:56;7.30;67.00
66190;DHT22;52992;52.084;5.412;2023-03-12T07:36:23;7.30;68.50
66190;DHT22;52992;52.084;5.412;2023-03-12T07:38:50;7.30;68.50
66190;DHT22;52992;52.084;5.412;2023-03-12T07:41:17;7.40;68.60
66190;DHT22;52992;52.084;5.412;2023-03-12T07:43:44;7.40;69.00
66190;DHT22;52992;52.084;5.412;2023-03-12T07:46:11;7.30;68.90
66190;DHT22;52992;52.084;5.412;2023-03-12T07:48:38;7.40;69.20
66190;DHT22;52992;52.084;5.412;2023-03-12T07:51:09;7.50;69.20
66190;DHT22;52992;52.084;5.412;2023-03-12T07:53:37;7.50;69.40
66190;DHT22;52992;52.084;5.412;2023-03-12T07:56:04;7.60;69.40
66190;DHT22;52992;52.084;5.412;2023-03-12T07:58:31;7.70;69.30
66190;DHT22;52992;52.084;5.412;2023-03-12T08:00:59;7.70;69.20
66190;DHT22;52992;52.084;5.412;2023-03-12T08:03:26;7.70;69.20
66190;DHT22;52992;52.084;5.412;2023-03-12T08:05:59;7.80;69.20
66190;DHT22;52992;52.084;5.412;2023-03-12T08:08:26;7.90;69.00
66190;DHT22;52992;52.084;5.412;2023-03-12T08:10:54;7.90;69.10
66190;DHT22;52992;52.084;5.412;2023-03-12T08:13:21;7.90;69.20
66190;DHT22;52992;52.084;5.412;2023-03-12T08:15:52;7.90;69.50
66190;DHT22;52992;52.084;5.412;2023-03-12T08:18:20;8.00;69.60
66190;DHT22;52992;52.084;5.412;2023-03-12T08:20:53;8.00;69.70
66190;DHT22;52992;52.084;5.412;2023-03-12T08:23:21;8.10;69.70
66190;DHT22;52992;52.084;5.412;2023-03-12T08:25:49;8.20;69.30
66190;DHT22;52992;52.084;5.412;2023-03-12T08:28:17;8.20;69.40
66190;DHT22;52992;52.084;5.412;2023-03-12T08:30:49;8.20;69.10
66190;DHT22;52992;52.084;5.412;2023-03-12T08:33:16;8.20;69.40
66190;DHT22;52992;52.084;5.412;2023-03-12T08:35:43;8.30;69.90
66190;DHT22;52992;52.084;5.412;2023-03-12T08:38:10;8.40;69.90
66190;DHT22;52992;52.084;5.412;2023-03-12T08:40:37;8.40;69.80
66190;DHT22;52992;52.084;5.412;2023-03-12T08:43:04;8.50;69.90
66190;DHT22;52992;52.084;5.412;2023-03-12T08:45:33;8.50;70.00
66190;DHT22;52992;52.084;5.412;2023-03-12T08:48:05;8.60;70.10
66190;DHT22;52992;52.084;5.412;2023-03-12T08:50:32;8.70;69.70
66190;DHT22;52992;52.084;5.412;2023-03-12T08:52:59;8.70;69.70
66190;DHT22;52992;52.084;5.412;2023-03-12T08:55:26;8.80;70.00
66190;DHT22;52992;52.084;5.412;2023-03-12T08:57:56;8.90;69.90
66190;DHT22;52992;52.084;5.412;2023-03-12T09:00:23;9.00;69.70
66190;DHT22;52992;52.084;5.412;2023-03-12T09:02:50;9.00;69.70
66190;DHT22;52992;52.084;5.412;2023-03-12T09:05:19;9.00;70.00
66190;DHT22;52992;52.084;5.412;2023-03-12T09:07:46;9.10;69.80
66190;DHT22;52992;52.084;5.412;2023-03-12T09:10:13;9.10;69.90
66190;DHT22;52992;52.084;5.412;2023-03-12T09:12:40;9.10;69.90
66190;DHT22;52992;52.084;5.412;2023-03-12T09:15:07;9.10;70.00
66190;DHT22;52992;52.084;5.412;2023-03-12T09:17:34;9.20;70.20
66190;DHT22;52992;52.084;5.412;2023-03-12T09:20:01;9.30;70.00
66190;DHT22;52992;52.084;5.412;2023-03-12T09:22:32;9.40;70.10
66190;DHT22;52992;52.084;5.412;2023-03-12T09:24:59;9.50;70.20
66190;DHT22;52992;52.084;5.412;2023-03-12T09:27:26;9.60;70.20
66190;DHT22;52992;52.084;5.412;2023-03-12T09:29:53;9.70;70.10
66190;DHT22;52992;52.084;5.412;2023-03-12T09:32:27;9.80;70.20
66190;DHT22;52992;52.084;5.412;2023-03-12T09:34:54;9.80;70.30
66190;DHT22;52992;52.084;5.412;2023-03-12T09:37:21;10.00;70.90
66190;DHT22;52992;52.084;5.412;2023-03-12T09:39:50;10.20;70.60
66190;DHT22;52992;52.084;5.412;2023-03-12T09:42:24;10.40;70.20
66190;DHT22;52992;52.084;5.412;2023-03-12T09:44:54;10.50;70.30
66190;DHT22;52992;52.084;5.412;2023-03-12T09:50:02;10.70;70.10
66190;DHT22;52992;52.084;5.412;2023-03-12T09:55:22;10.70;70.10
66190;DHT22;52992;52.084;5.412;2023-03-12T09:57:50;10.70;69.90
66190;DHT22;52992;52.084;5.412;2023-03-12T10:00:20;10.70;70.50
66190;DHT22;52992;52.084;5.412;2023-03-12T10:09:04;10.60;70.60
66190;DHT22;52992;52.084;5.412;2023-03-12T10:17:29;10.80;71.00
66190;DHT22;52992;52.084;5.412;2023-03-12T10:20:22;10.90;70.90
66190;DHT22;52992;52.084;5.412;2023-03-12T10:28:39;11.00;71.20
66190;DHT22;52992;52.084;5.412;2023-03-12T10:31:29;11.00;71.60
66190;DHT22;52992;52.084;5.412;2023-03-12T10:33:59;11.20;71.90
66190;DHT22;52992;52.084;5.412;2023-03-12T10:36:36;11.30;71.60
66190;DHT22;52992;52.084;5.412;2023-03-12T10:39:05;11.40;71.30
66190;DHT22;52992;52.084;5.412;2023-03-12T10:41:36;11.60;71.90
66190;DHT22;52992;52.084;5.412;2023-03-12T10:44:07;11.80;71.80
66190;DHT22;52992;52.084;5.412;2023-03-12T10:46:57;11.90;71.70
66190;DHT22;52992;52.084;5.412;2023-03-12T10:49:29;12.20;71.50
66190;DHT22;52992;52.084;5.412;2023-03-12T10:52:03;12.30;71.20
66190;DHT22;52992;52.084;5.412;2023-03-12T10:54:36;12.40;71.50
66190;DHT22;52992;52.084;5.412;2023-03-12T10:57:04;12.50;71.00
66190;DHT22;52992;52.084;5.412;2023-03-12T10:59:33;12.60;71.20
66190;DHT22;52992;52.084;5.412;2023-03-12T11:02:02;12.50;71.30
66190;DHT22;52992;52.084;5.412;2023-03-12T11:04:30;12.60;71.40
66190;DHT22;52992;52.084;5.412;2023-03-12T11:07:49;12.60;72.00
66190;DHT22;52992;52.084;5.412;2023-03-12T11:10:13;12.60;72.00
66190;DHT22;52992;52.084;5.412;2023-03-12T11:20:56;13.00;72.10
66190;DHT22;52992;52.084;5.412;2023-03-12T11:23:29;13.10;72.00
66190;DHT22;52992;52.084;5.412;2023-03-12T11:26:50;13.10;71.50
66190;DHT22;52992;52.084;5.412;2023-03-12T11:29:02;13.10;71.70
66190;DHT22;52992;52.084;5.412;2023-03-12T11:31:37;13.10;72.10
66190;DHT22;52992;52.084;5.412;2023-03-12T11:34:15;13.10;72.50
66190;DHT22;52992;52.084;5.412;2023-03-12T11:39:37;13.20;73.10
66190;DHT22;52992;52.084;5.412;2023-03-12T12:09:49;13.80;70.40
66190;DHT22;52992;52.084;5.412;2023-03-12T12:18:38;14.20;67.70
66190;DHT22;52992;52.084;5.412;2023-03-12T12:27:18;14.10;68.00
66190;DHT22;52992;52.084;5.412;2023-03-12T12:35:18;14.60;66.00
66190;DHT22;52992;52.084;5.412;2023-03-12T12:37:57;14.60;66.40
66190;DHT22;52992;52.084;5.412;2023-03-12T12:40:32;14.80;66.10
66190;DHT22;52992;52.084;5.412;2023-03-12T12:43:05;14.80;65.00
66190;DHT22;52992;52.084;5.412;2023-03-12T12:45:39;14.90;65.00
66190;DHT22;52992;52.084;5.412;2023-03-12T12:48:12;14.90;65.00
66190;DHT22;52992;52.084;5.412;2023-03-12T12:50:43;14.80;64.70
66190;DHT22;52992;52.084;5.412;2023-03-12T12:53:25;14.80;65.20
66190;DHT22;52992;52.084;5.412;2023-03-12T12:56:02;14.80;65.10
66190;DHT22;52992;52.084;5.412;2023-03-12T13:01:30;14.70;65.10
66190;DHT22;52992;52.084;5.412;2023-03-12T13:04:08;14.70;65.20
66190;DHT22;52992;52.084;5.412;2023-03-12T13:06:59;14.80;64.80
66190;DHT22;52992;52.084;5.412;2023-03-12T13:09:37;15.00;64.40
66190;DHT22;52992;52.084;5.412;2023-03-12T13:12:17;15.20;63.40
66190;DHT22;52992;52.084;5.412;2023-03-12T13:14:46;15.60;62.40
66190;DHT22;52992;52.084;5.412;2023-03-12T13:17:35;15.90;61.10
66190;DHT22;52992;52.084;5.412;2023-03-12T13:20:27;15.90;60.00
66190;DHT22;52992;52.084;5.412;2023-03-12T13:25:52;15.80;59.80
66190;DHT22;52992;52.084;5.412;2023-03-12T13:30:59;15.40;60.50
66190;DHT22;52992;52.084;5.412;2023-03-12T13:33:40;15.30;61.00
66190;DHT22;52992;52.084;5.412;2023-03-12T13:36:18;15.50;61.20
66190;DHT22;52992;52.084;5.412;2023-03-12T13:41:44;15.60;60.40
66190;DHT22;52992;52.084;5.412;2023-03-12T13:52:24;16.30;58.50
66190;DHT22;52992;52.084;5.412;2023-03-12T13:57:51;17.00;56.00
66190;DHT22;52992;52.084;5.412;2023-03-12T14:00:32;17.30;54.80
66190;DHT22;52992;52.084;5.412;2023-03-12T14:03:15;17.50;52.70
66190;DHT22;52992;52.084;5.412;2023-03-12T14:16:47;20.20;46.20
66190;DHT22;52992;52.084;5.412;2023-03-12T14:19:17;20.50;45.40
66190;DHT22;52992;52.084;5.412;2023-03-12T14:21:47;20.60;43.80
66190;DHT22;52992;52.084;5.412;2023-03-12T14:24:26;20.10;44.70
66190;DHT22;52992;52.084;5.412;2023-03-12T14:26:54;19.20;45.90
66190;DHT22;52992;52.084;5.412;2023-03-12T14:29:44;18.50;47.70
66190;DHT22;52992;52.084;5.412;2023-03-12T14:32:16;18.00;49.00
66190;DHT22;52992;52.084;5.412;2023-03-12T14:34:46;17.70;49.80
66190;DHT22;52992;52.084;5.412;2023-03-12T14:37:37;17.80;50.10
66190;DHT22;52992;52.084;5.412;2023-03-12T14:40:28;17.80;48.80
66190;DHT22;52992;52.084;5.412;2023-03-12T14:42:59;18.00;48.00
66190;DHT22;52992;52.084;5.412;2023-03-12T14:45:26;18.50;47.70
66190;DHT22;52992;52.084;5.412;2023-03-12T14:47:57;18.60;46.70
66190;DHT22;52992;52.084;5.412;2023-03-12T14:50:29;18.20;47.10
66190;DHT22;52992;52.084;5.412;2023-03-12T14:53:23;17.80;47.80
66190;DHT22;52992;52.084;5.412;2023-03-12T14:56:33;17.50;48.90
66190;DHT22;52992;52.084;5.412;2023-03-12T14:58:57;17.10;49.50
66190;DHT22;52992;52.084;5.412;2023-03-12T15:01:32;16.90;49.80
66190;DHT22;52992;52.084;5.412;2023-03-12T15:04:15;16.90;49.80
66190;DHT22;52992;52.084;5.412;2023-03-12T15:06:51;16.80;49.50
66190;DHT22;52992;52.084;5.412;2023-03-12T15:09:25;16.70;49.80
66190;DHT22;52992;52.084;5.412;2023-03-12T15:12:04;16.60;50.20
66190;DHT22;52992;52.084;5.412;2023-03-12T15:14:34;16.50;49.90
66190;DHT22;52992;52.084;5.412;2023-03-12T15:17:02;16.30;51.00
66190;DHT22;52992;52.084;5.412;2023-03-12T15:19:32;16.20;51.20
66190;DHT22;52992;52.084;5.412;2023-03-12T15:22:02;16.10;52.10
66190;DHT22;52992;52.084;5.412;2023-03-12T15:24:36;16.00;52.80
66190;DHT22;52992;52.084;5.412;2023-03-12T15:29:56;15.80;53.50
66190;DHT22;52992;52.084;5.412;2023-03-12T15:32:24;15.60;53.60
66190;DHT22;52992;52.084;5.412;2023-03-12T15:34:52;15.40;54.40
66190;DHT22;52992;52.084;5.412;2023-03-12T15:40:02;15.40;54.90
66190;DHT22;52992;52.084;5.412;2023-03-12T15:42:38;15.40;55.00
66190;DHT22;52992;52.084;5.412;2023-03-12T15:45:17;15.30;54.60
66190;DHT22;52992;52.084;5.412;2023-03-12T15:47:45;15.30;55.20
66190;DHT22;52992;52.084;5.412;2023-03-12T15:50:36;15.30;55.10
66190;DHT22;52992;52.084;5.412;2023-03-12T15:55:39;15.40;55.30
66190;DHT22;52992;52.084;5.412;2023-03-12T15:58:40;15.40;54.30
66190;DHT22;52992;52.084;5.412;2023-03-12T16:01:17;15.20;54.50
66190;DHT22;52992;52.084;5.412;2023-03-12T16:03:49;15.10;54.60
66190;DHT22;52992;52.084;5.412;2023-03-12T16:06:17;14.90;54.70
66190;DHT22;52992;52.084;5.412;2023-03-12T16:08:49;14.90;55.00
66190;DHT22;52992;52.084;5.412;2023-03-12T16:11:19;14.90;55.30
66190;DHT22;52992;52.084;5.412;2023-03-12T16:13:48;14.80;55.30
66190;DHT22;52992;52.084;5.412;2023-03-12T16:16:16;14.80;55.30
66190;DHT22;52992;52.084;5.412;2023-03-12T16:18:43;14.80;55.70
66190;DHT22;52992;52.084;5.412;2023-03-12T16:21:10;14.90;56.00
66190;DHT22;52992;52.084;5.412;2023-03-12T16:23:37;14.80;56.10
66190;DHT22;52992;52.084;5.412;2023-03-12T16:26:04;14.80;56.10
66190;DHT22;52992;52.084;5.412;2023-03-12T16:28:34;14.70;56.10
66190;DHT22;52992;52.084;5.412;2023-03-12T16:31:01;14.70;56.40
66190;DHT22;52992;52.084;5.412;2023-03-12T16:33:28;14.70;56.70
66190;DHT22;52992;52.084;5.412;2023-03-12T16:35:55;14.60;57.00
66190;DHT22;52992;52.084;5.412;2023-03-12T16:38:22;14.60;57.00
66190;DHT22;52992;52.084;5.412;2023-03-12T16:40:51;14.50;57.50
66190;DHT22;52992;52.084;5.412;2023-03-12T16:43:23;14.40;57.60
66190;DHT22;52992;52.084;5.412;2023-03-12T16:45:51;14.40;57.80
66190;DHT22;52992;52.084;5.412;2023-03-12T16:48:20;14.30;57.90
66190;DHT22;52992;52.084;5.412;2023-03-12T16:50:54;14.40;57.80
66190;DHT22;52992;52.084;5.412;2023-03-12T16:53:22;14.40;58.00
66190;DHT22;52992;52.084;5.412;2023-03-12T16:55:52;14.40;57.90
66190;DHT22;52992;52.084;5.412;2023-03-12T16:58:20;14.40;57.90
66190;DHT22;52992;52.084;5.412;2023-03-12T17:00:49;14.30;58.50
66190;DHT22;52992;52.084;5.412;2023-03-12T17:05:47;14.20;58.50
66190;DHT22;52992;52.084;5.412;2023-03-12T17:08:14;14.10;59.00
66190;DHT22;52992;52.084;5.412;2023-03-12T17:10:41;14.10;59.10
66190;DHT22;52992;52.084;5.412;2023-03-12T17:13:19;14.10;59.30
66190;DHT22;52992;52.084;5.412;2023-03-12T17:15:47;14.00;59.50
66190;DHT22;52992;52.084;5.412;2023-03-12T17:18:14;13.90;59.80
66190;DHT22;52992;52.084;5.412;2023-03-12T17:20:42;13.80;60.00
66190;DHT22;52992;52.084;5.412;2023-03-12T17:23:09;13.70;60.40
66190;DHT22;52992;52.084;5.412;2023-03-12T17:25:39;13.60;60.50
66190;DHT22;52992;52.084;5.412;2023-03-12T17:28:06;13.60;60.70
66190;DHT22;52992;52.084;5.412;2023-03-12T17:30:34;13.60;60.80
66190;DHT22;52992;52.084;5.412;2023-03-12T17:33:21;13.50;61.10
66190;DHT22;52992;52.084;5.412;2023-03-12T17:36:02;13.50;61.20
66190;DHT22;52992;52.084;5.412;2023-03-12T17:38:30;13.40;61.40
66190;DHT22;52992;52.084;5.412;2023-03-12T17:40:58;13.40;61.40
66190;DHT22;52992;52.084;5.412;2023-03-12T17:43:26;13.30;61.70
66190;DHT22;52992;52.084;5.412;2023-03-12T17:45:53;13.30;61.90
66190;DHT22;52992;52.084;5.412;2023-03-12T17:48:20;13.30;61.90
66190;DHT22;52992;52.084;5.412;2023-03-12T17:50:49;13.20;61.70
66190;DHT22;52992;52.084;5.412;2023-03-12T17:53:16;13.20;61.80
66190;DHT22;52992;52.084;5.412;2023-03-12T17:55:42;13.30;61.90
66190;DHT22;52992;52.084;5.412;2023-03-12T17:58:09;13.30;61.80
66190;DHT22;52992;52.084;5.412;2023-03-12T18:00:36;13.30;61.70
66190;DHT22;52992;52.084;5.412;2023-03-12T18:03:03;13.30;61.70
66190;DHT22;52992;52.084;5.412;2023-03-12T18:05:30;13.30;61.50
66190;DHT22;52992;52.084;5.412;2023-03-12T18:07:56;13.30;61.50
66190;DHT22;52992;52.084;5.412;2023-03-12T18:10:23;13.40;61.40